Time;durP1;ratioP1;P1;durP2;ratioP2;P2;SDS_P1;SDS_P2;PMS_P1;PMS_P2;Temp;Humidity;BMP_temperature;BMP_pressure;BME280_temperature;BME280_humidity;BME280_pressure;Samples;Min_cycle;Max_cycle;Signal;HPM_P1;HPM_P2
2022/06/12 00:00:06;;;;;;;10.77;2.83;;;14.50;99.90;;;;;;5074493;28;20045;-55
2022/06/12 00:02:31;;;;;;;10.77;2.10;;;14.50;99.90;;;;;;5074415;28;20048;-55
2022/06/12 00:04:57;;;;;;;9.43;2.75;;;14.50;99.90;;;;;;5074511;28;20441;-55
2022/06/12 00:07:22;;;;;;;9.00;3.00;;;14.40;99.90;;;;;;5074626;28;20391;-54
2022/06/12 00:09:48;;;;;;;6.80;2.60;;;14.40;99.90;;;;;;5074261;28;20102;-54
2022/06/12 00:12:14;;;;;;;8.50;2.08;;;14.40;99.90;;;;;;5071764;28;20041;-54
2022/06/12 00:14:40;;;;;;;10.32;2.33;;;14.30;99.90;;;;;;5074114;28;20510;-54
2022/06/12 00:17:06;;;;;;;9.25;2.47;;;14.30;99.90;;;;;;5074092;28;20076;-54
2022/06/12 00:19:32;;;;;;;8.18;2.20;;;14.30;99.90;;;;;;5073989;28;20106;-54
2022/06/12 00:21:58;;;;;;;9.48;2.63;;;14.30;99.90;;;;;;5073964;28;20060;-55
2022/06/12 00:24:24;;;;;;;10.05;2.35;;;14.30;99.90;;;;;;5073890;28;20057;-54
2022/06/12 00:26:53;;;;;;;11.55;3.70;;;14.30;99.90;;;;;;5073605;28;20071;-54
2022/06/12 00:29:20;;;;;;;;;;;14.20;99.90;;;;;;5073882;28;20127;-54
2022/06/12 00:31:58;;;;;;;8.75;2.28;;;14.20;99.90;;;;;;5073611;28;19924;-54
2022/06/12 00:34:29;;;;;;;7.72;2.17;;;14.20;99.90;;;;;;5056070;28;20041;-54
2022/06/12 00:36:56;;;;;;;12.93;2.55;;;14.10;99.90;;;;;;5073694;28;20086;-53
2022/06/12 00:39:22;;;;;;;7.18;2.13;;;14.00;99.90;;;;;;5073509;28;20064;-54
2022/06/12 00:41:51;;;;;;;11.40;2.58;;;14.10;99.90;;;;;;5056044;28;20052;-54
2022/06/12 00:44:21;;;;;;;7.90;2.72;;;14.10;99.90;;;;;;5072354;28;20131;-54
2022/06/12 00:47:00;;;;;;;10.68;2.72;;;14.10;99.90;;;;;;5073468;28;20044;-54
2022/06/12 00:49:44;;;;;;;11.27;2.42;;;14.00;99.90;;;;;;5064490;28;20049;-54
2022/06/12 00:52:29;;;;;;;8.52;2.28;;;13.90;99.90;;;;;;5073175;28;20048;-54
2022/06/12 00:55:05;;;;;;;8.68;2.28;;;14.00;99.90;;;;;;5073073;28;20044;-55
2022/06/12 00:57:32;;;;;;;8.30;2.55;;;13.90;99.90;;;;;;5073597;28;20394;-56
2022/06/12 01:00:05;;;;;;;10.75;2.17;;;13.90;99.90;;;;;;5073150;28;20040;-55
2022/06/12 01:02:34;;;;;;;6.05;2.20;;;13.80;99.90;;;;;;5073299;28;20449;-55
2022/06/12 01:07:49;;;;;;;10.60;2.30;;;13.70;99.90;;;;;;5072906;28;19924;-54
2022/06/12 01:10:18;;;;;;;8.50;2.35;;;13.60;99.90;;;;;;5072484;28;20048;-54
2022/06/12 01:12:52;;;;;;;13.00;3.00;;;13.70;99.90;;;;;;5072760;28;20045;-55
2022/06/12 01:15:34;;;;;;;7.28;2.10;;;13.60;99.90;;;;;;5072736;28;20098;-55
2022/06/12 01:18:00;;;;;;;7.85;2.35;;;13.60;99.90;;;;;;5072468;28;20057;-52
2022/06/12 01:20:31;;;;;;;8.50;2.40;;;13.60;99.90;;;;;;5072474;28;20044;-54
2022/06/12 01:23:47;;;;;;;7.03;2.03;;;13.60;99.90;;;;;;5072670;28;20036;-52
2022/06/12 01:26:32;;;;;;;7.20;2.10;;;13.50;99.90;;;;;;5030421;28;20132;-54
2022/06/12 01:29:03;;;;;;;11.90;2.33;;;13.60;99.90;;;;;;5030358;28;20049;-54
2022/06/12 01:31:40;;;;;;;10.82;2.17;;;13.50;99.90;;;;;;5030611;28;20123;-52
2022/06/12 01:34:35;;;;;;;8.10;2.10;;;13.50;99.90;;;;;;5030290;28;20045;-54
2022/06/12 01:37:18;;;;;;;10.80;3.05;;;13.50;99.90;;;;;;5030584;28;20049;-55
2022/06/12 01:40:15;;;;;;;11.13;2.15;;;13.50;99.90;;;;;;5030143;28;20049;-54
2022/06/12 01:42:51;;;;;;;9.27;2.25;;;13.50;99.90;;;;;;5030703;28;20057;-53
2022/06/12 01:45:53;;;;;;;5.68;1.77;;;13.40;99.90;;;;;;5030173;28;20057;-54
2022/06/12 01:48:25;;;;;;;6.75;2.55;;;13.50;99.90;;;;;;4951927;29;20553;-55
2022/06/12 01:51:15;;;;;;;7.97;2.50;;;13.40;99.90;;;;;;4952327;29;20518;-55
2022/06/12 01:53:56;;;;;;;5.05;2.10;;;13.40;99.90;;;;;;4971266;28;20062;-55
2022/06/12 01:56:30;;;;;;;8.20;2.75;;;13.40;99.90;;;;;;4971259;28;20051;-54
2022/06/12 01:59:19;;;;;;;9.27;2.75;;;13.40;99.90;;;;;;4971191;28;20047;-55
2022/06/12 02:01:55;;;;;;;9.45;2.47;;;13.40;99.90;;;;;;4990688;28;20432;-55
2022/06/12 02:04:52;;;;;;;10.68;2.88;;;13.30;99.90;;;;;;4990512;28;20046;-54
2022/06/12 02:07:54;;;;;;;8.20;2.40;;;13.30;99.90;;;;;;4894735;29;20052;-55
2022/06/12 02:10:40;;;;;;;9.18;3.03;;;13.30;99.90;;;;;;4857670;29;20224;-54
2022/06/12 02:13:14;;;;;;;9.65;2.95;;;13.30;99.90;;;;;;4857670;29;20081;-54
2022/06/12 02:15:54;;;;;;;13.48;3.05;;;13.30;99.90;;;;;;4857475;29;20121;-55
2022/06/12 02:18:20;;;;;;;7.75;2.30;;;13.30;99.90;;;;;;4857619;29;20476;-55
2022/06/12 02:20:52;;;;;;;7.60;2.30;;;13.30;99.90;;;;;;4857464;29;20137;-54
2022/06/12 02:23:29;;;;;;;9.32;3.05;;;13.30;99.90;;;;;;4857575;29;20072;-55
2022/06/12 02:25:56;;;;;;;11.52;2.45;;;13.30;99.90;;;;;;4920391;29;20138;-53
2022/06/12 02:28:38;;;;;;;12.23;3.00;;;13.30;99.90;;;;;;4932559;29;20545;-52
2022/06/12 02:31:08;;;;;;;6.90;2.55;;;13.30;99.90;;;;;;4932481;29;20058;-55
2022/06/12 02:33:41;;;;;;;11.38;2.97;;;13.20;99.90;;;;;;4932388;29;20094;-54
2022/06/12 02:36:15;;;;;;;11.13;2.75;;;13.20;99.90;;;;;;4932654;29;20446;-54
2022/06/12 02:38:51;;;;;;;9.38;2.58;;;13.20;99.90;;;;;;4932568;29;20523;-57
2022/06/12 02:41:34;;;;;;;13.07;3.28;;;13.20;99.90;;;;;;4932369;29;20517;-54
2022/06/12 02:44:08;;;;;;;10.15;2.78;;;13.20;99.90;;;;;;4968637;28;20047;-54
2022/06/12 02:46:40;;;;;;;6.82;3.03;;;13.20;99.90;;;;;;5030055;28;20439;-55
2022/06/12 02:49:09;;;;;;;7.38;2.83;;;13.20;99.90;;;;;;5072081;28;20120;-53
2022/06/12 02:51:39;;;;;;;9.15;2.95;;;13.10;99.90;;;;;;5071701;28;20044;-55
2022/06/12 02:54:09;;;;;;;10.20;3.42;;;13.10;99.90;;;;;;5072175;28;20048;-55
2022/06/12 02:56:38;;;;;;;12.07;3.25;;;13.00;99.90;;;;;;5071348;28;20045;-55
2022/06/12 02:59:35;;;;;;;10.85;2.85;;;13.10;99.90;;;;;;5053844;28;20098;-54
2022/06/12 03:02:22;;;;;;;6.40;2.45;;;13.10;99.90;;;;;;5071684;28;20044;-54
2022/06/12 03:04:55;;;;;;;8.23;3.03;;;13.20;99.90;;;;;;5071530;28;20098;-55
2022/06/12 03:07:20;;;;;;;9.88;2.50;;;13.20;99.90;;;;;;5072979;28;20048;-55
2022/06/12 03:09:46;;;;;;;7.47;2.50;;;13.20;99.90;;;;;;5074916;28;20048;-55
2022/06/12 03:12:12;;;;;;;7.15;2.63;;;13.20;99.90;;;;;;5075253;28;20072;-55
2022/06/12 03:14:39;;;;;;;7.82;2.50;;;13.10;99.90;;;;;;5074975;28;20494;-55
2022/06/12 03:17:05;;;;;;;9.02;2.67;;;13.10;99.90;;;;;;5074845;28;20044;-54
2022/06/12 03:19:41;;;;;;;9.65;2.78;;;13.10;99.90;;;;;;5056775;28;20061;-53
2022/06/12 03:22:21;;;;;;;7.75;2.20;;;13.00;99.90;;;;;;5075152;28;20109;-55
2022/06/12 03:25:10;;;;;;;7.53;2.33;;;13.00;99.90;;;;;;5074906;28;20044;-53
2022/06/12 03:28:11;;;;;;;10.88;3.47;;;13.00;99.90;;;;;;5074711;28;20051;-52
2022/06/12 03:31:07;;;;;;;7.05;2.70;;;13.10;99.90;;;;;;5013185;28;20121;-54
2022/06/12 03:33:33;;;;;;;10.70;2.92;;;13.00;99.90;;;;;;5012648;28;20046;-52
2022/06/12 03:36:25;;;;;;;9.77;2.83;;;13.00;99.90;;;;;;5012904;28;20089;-54
2022/06/12 03:39:16;;;;;;;7.40;2.60;;;13.00;99.90;;;;;;5013168;28;20049;-53
2022/06/12 03:41:51;;;;;;;11.10;3.22;;;13.00;99.90;;;;;;4973720;28;20058;-53
2022/06/12 03:44:23;;;;;;;16.88;3.13;;;13.00;99.90;;;;;;4973658;28;20051;-53
2022/06/12 03:46:55;;;;;;;8.15;2.83;;;13.00;99.90;;;;;;4973401;28;20189;-55
2022/06/12 03:49:39;;;;;;;8.23;2.70;;;13.00;99.90;;;;;;4973686;28;20051;-56
2022/06/12 03:52:49;;;;;;;6.43;2.20;;;13.10;99.90;;;;;;4957281;28;20055;-54
2022/06/12 03:57:50;;;;;;;8.82;2.60;;;13.10;99.90;;;;;;4971599;28;20604;-52
2022/06/12 03:58:17;;;;;;;8.07;2.25;;;13.00;99.90;;;;;;4973397;28;20508;-53
2022/06/12 04:00:45;;;;;;;16.33;3.03;;;13.10;99.90;;;;;;4973180;28;20054;-54
2022/06/12 04:03:24;;;;;;;7.35;2.30;;;13.10;99.90;;;;;;4973349;28;20065;-55
2022/06/12 04:06:16;;;;;;;17.33;4.70;;;13.10;99.90;;;;;;4973175;28;20923;-56
2022/06/12 04:08:51;;;;;;;11.90;2.92;;;13.10;99.90;;;;;;4973115;28;20062;-55
2022/06/12 04:11:20;;;;;;;9.38;3.00;;;13.20;99.90;;;;;;4972954;28;20383;-55
2022/06/12 04:13:46;;;;;;;8.98;2.45;;;13.20;99.90;;;;;;4972745;28;20121;-55
2022/06/12 04:16:27;;;;;;;11.63;2.92;;;13.20;99.90;;;;;;4973097;28;20067;-54
2022/06/12 04:18:54;;;;;;;7.47;2.72;;;13.30;99.90;;;;;;5032265;28;20056;-55
2022/06/12 04:21:25;;;;;;;7.38;3.05;;;13.30;99.90;;;;;;5073816;28;20049;-56
2022/06/12 04:24:06;;;;;;;10.45;3.47;;;13.30;99.90;;;;;;5074062;28;20059;-55
2022/06/12 04:26:35;;;;;;;9.57;2.50;;;13.40;99.90;;;;;;5072258;28;20479;-55
2022/06/12 04:29:13;;;;;;;9.18;2.53;;;13.50;99.90;;;;;;5074108;28;20430;-54
2022/06/12 04:31:44;;;;;;;12.52;3.03;;;13.60;99.90;;;;;;5073580;28;20091;-55
2022/06/12 04:34:16;;;;;;;10.63;3.03;;;13.60;99.90;;;;;;5073580;28;20642;-55
2022/06/12 04:36:44;;;;;;;14.18;3.40;;;13.70;99.90;;;;;;5073446;28;20052;-55
2022/06/12 04:39:12;;;;;;;7.82;2.78;;;13.70;99.90;;;;;;5073560;28;20044;-55
2022/06/12 04:41:38;;;;;;;10.02;2.50;;;13.70;99.90;;;;;;5073538;28;20048;-53
2022/06/12 04:44:05;;;;;;;8.52;2.58;;;13.80;99.90;;;;;;5073392;28;20044;-56
2022/06/12 04:46:33;;;;;;;12.77;2.17;;;13.80;99.90;;;;;;5073544;28;20406;-54
2022/06/12 04:48:59;;;;;;;16.17;3.15;;;13.70;99.90;;;;;;5073233;28;20040;-56
2022/06/12 04:51:26;;;;;;;11.05;2.85;;;13.80;99.90;;;;;;5072972;28;20045;-54
2022/06/12 04:53:52;;;;;;;7.72;2.30;;;13.70;99.90;;;;;;5073258;28;20040;-54
2022/06/12 04:56:19;;;;;;;7.55;2.35;;;13.70;99.90;;;;;;5073366;28;20041;-54
2022/06/12 04:58:46;;;;;;;9.65;2.33;;;13.80;99.90;;;;;;5072917;28;20120;-55
2022/06/12 05:01:12;;;;;;;10.10;2.25;;;13.80;99.90;;;;;;5073131;28;20119;-56
2022/06/12 05:03:38;;;;;;;8.40;2.90;;;13.80;99.90;;;;;;5073055;28;20053;-54
2022/06/12 05:06:04;;;;;;;18.00;2.92;;;13.80;99.90;;;;;;5073227;28;21220;-52
2022/06/12 05:08:31;;;;;;;10.48;2.45;;;13.90;99.90;;;;;;5073385;28;20445;-54
2022/06/12 05:10:57;;;;;;;10.70;2.40;;;13.90;99.90;;;;;;5073176;28;20055;-54
2022/06/12 05:13:23;;;;;;;11.38;2.40;;;14.10;99.90;;;;;;5072924;28;20044;-54
2022/06/12 05:15:49;;;;;;;6.72;2.03;;;14.10;99.90;;;;;;5073292;28;20424;-54
2022/06/12 05:18:17;;;;;;;7.93;2.55;;;14.20;99.90;;;;;;5072440;28;20052;-54
2022/06/12 05:20:43;;;;;;;10.35;2.10;;;14.20;99.90;;;;;;5073294;28;20036;-52
2022/06/12 05:23:09;;;;;;;10.98;2.58;;;14.40;99.90;;;;;;5072916;28;20047;-55
2022/06/12 05:25:37;;;;;;;11.52;2.63;;;14.50;99.90;;;;;;5072684;28;20154;-54
2022/06/12 05:28:03;;;;;;;11.65;3.30;;;14.50;99.90;;;;;;5072547;28;20098;-55
2022/06/12 05:30:31;;;;;;;13.00;3.35;;;14.70;99.90;;;;;;5072173;28;20041;-55
2022/06/12 05:32:59;;;;;;;10.60;2.70;;;14.70;99.90;;;;;;5071806;28;20169;-53
2022/06/12 05:35:26;;;;;;;13.63;2.83;;;14.80;99.90;;;;;;5072700;28;20078;-55
2022/06/12 05:37:52;;;;;;;11.90;2.88;;;14.90;99.90;;;;;;5073024;28;20045;-54
2022/06/12 05:40:27;;;;;;;15.40;3.13;;;14.90;99.90;;;;;;5072683;28;20064;-54
2022/06/12 05:42:53;;;;;;;11.60;3.17;;;15.00;99.90;;;;;;5072430;28;20045;-54
2022/06/12 05:45:23;;;;;;;19.48;3.92;;;15.10;99.90;;;;;;5071034;28;20395;-55
2022/06/12 05:47:53;;;;;;;13.52;3.28;;;15.20;99.90;;;;;;5072141;28;20544;-53
2022/06/12 05:50:22;;;;;;;18.63;4.50;;;15.30;99.90;;;;;;5072438;28;20063;-56
2022/06/12 05:52:47;;;;;;;;;;;15.40;99.90;;;;;;5072972;28;20044;-55
2022/06/12 05:55:13;;;;;;;13.65;4.10;;;15.50;99.90;;;;;;5071870;28;20282;-54
2022/06/12 05:57:39;;;;;;;15.93;4.35;;;15.60;99.90;;;;;;5072122;28;20041;-55
2022/06/12 06:00:10;;;;;;;19.55;3.78;;;15.70;99.90;;;;;;5072385;28;20471;-55
2022/06/12 06:02:38;;;;;;;16.02;4.28;;;15.80;99.90;;;;;;5061482;28;20057;-54
2022/06/12 06:05:06;;;;;;;21.90;4.75;;;15.90;99.90;;;;;;5071097;28;20036;-54
2022/06/12 06:07:33;;;;;;;21.75;4.50;;;16.00;99.90;;;;;;5071635;28;20055;-57
2022/06/12 06:09:59;;;;;;;13.60;4.38;;;16.10;99.90;;;;;;5072098;28;20123;-55
2022/06/12 06:12:24;;;;;;;25.05;5.43;;;16.20;99.90;;;;;;5071767;28;20558;-55
2022/06/12 06:14:50;;;;;;;16.15;4.18;;;16.30;99.90;;;;;;5054324;28;20114;-53
2022/06/12 06:17:15;;;;;;;23.50;5.25;;;16.40;99.90;;;;;;5072098;28;20495;-58
2022/06/12 06:19:41;;;;;;;21.05;5.90;;;16.60;99.90;;;;;;5071503;28;20044;-55
2022/06/12 06:22:07;;;;;;;18.85;4.35;;;16.80;99.90;;;;;;5071966;28;20440;-55
2022/06/12 06:24:33;;;;;;;18.30;5.18;;;16.90;99.90;;;;;;5071985;28;20494;-55
2022/06/12 06:26:58;;;;;;;20.83;5.95;;;16.90;99.90;;;;;;5071881;28;20045;-55
2022/06/12 06:29:24;;;;;;;13.98;4.13;;;17.00;99.90;;;;;;5071634;28;20040;-55
2022/06/12 06:31:49;;;;;;;18.33;5.43;;;17.10;99.90;;;;;;5036789;28;20052;-55
2022/06/12 06:34:15;;;;;;;19.08;5.35;;;17.20;99.90;;;;;;5071458;28;20054;-54
2022/06/12 06:36:41;;;;;;;18.92;4.95;;;17.30;99.90;;;;;;5072146;28;20051;-55
2022/06/12 06:39:06;;;;;;;17.88;4.60;;;17.30;99.90;;;;;;5052988;28;20045;-55
2022/06/12 06:41:33;;;;;;;20.98;5.43;;;17.40;99.90;;;;;;5072107;28;20407;-55
2022/06/12 06:46:43;;;;;;;17.48;5.78;;;17.60;99.90;;;;;;5075754;28;20449;-55
2022/06/12 06:49:08;;;;;;;15.35;5.32;;;17.90;99.90;;;;;;5075387;28;20044;-54
2022/06/12 06:51:34;;;;;;;20.73;4.50;;;18.10;99.90;;;;;;5076085;28;20040;-55
2022/06/12 06:54:00;;;;;;;24.63;6.18;;;18.40;99.90;;;;;;5075371;28;20045;-55
2022/06/12 06:56:27;;;;;;;23.00;5.82;;;18.50;99.90;;;;;;5075549;28;20437;-54
2022/06/12 06:58:53;;;;;;;18.65;4.78;;;18.50;99.90;;;;;;5075374;28;20544;-54
2022/06/12 07:01:19;;;;;;;25.45;5.80;;;18.80;99.90;;;;;;5075742;28;20036;-54
2022/06/12 07:03:44;;;;;;;14.98;4.75;;;18.70;99.90;;;;;;5075595;28;20040;-53
2022/06/12 07:06:12;;;;;;;16.77;5.15;;;18.90;99.90;;;;;;5075567;28;20072;-55
2022/06/12 07:08:38;;;;;;;22.65;5.70;;;19.00;99.90;;;;;;5075672;28;20131;-55
2022/06/12 07:11:04;;;;;;;22.98;6.43;;;19.00;99.90;;;;;;5075353;28;20574;-55
2022/06/12 07:13:29;;;;;;;22.70;6.05;;;19.20;99.90;;;;;;5075337;28;20120;-56
2022/06/12 07:15:55;;;;;;;23.33;5.65;;;19.30;99.90;;;;;;5074661;28;20075;-56
2022/06/12 07:18:21;;;;;;;22.35;5.95;;;19.60;99.90;;;;;;5074613;28;20061;-57
2022/06/12 07:20:54;;;;;;;22.85;5.60;;;19.80;99.90;;;;;;5056111;28;20490;-57
2022/06/12 07:23:22;;;;;;;20.52;5.10;;;20.20;99.90;;;;;;5074293;28;20063;-56
2022/06/12 07:25:55;;;;;;;15.52;4.25;;;20.20;99.90;;;;;;5074367;28;20136;-57
2022/06/12 07:28:22;;;;;;;18.75;4.72;;;20.40;99.90;;;;;;5074417;28;20517;-56
2022/06/12 07:30:50;;;;;;;23.30;4.90;;;20.60;99.90;;;;;;5074460;28;20098;-56
2022/06/12 07:33:16;;;;;;;15.20;4.20;;;20.90;99.90;;;;;;5074256;28;20376;-57
2022/06/12 07:35:43;;;;;;;15.32;4.07;;;21.30;99.90;;;;;;5074229;28;20044;-57
2022/06/12 07:38:10;;;;;;;21.17;4.30;;;21.50;99.90;;;;;;5056161;28;20091;-57
2022/06/12 07:40:40;;;;;;;21.00;4.78;;;21.50;99.90;;;;;;5074156;28;20119;-57
2022/06/12 07:43:07;;;;;;;17.70;3.75;;;21.60;99.90;;;;;;5074041;28;20582;-57
2022/06/12 07:45:32;;;;;;;19.67;4.25;;;21.50;99.90;;;;;;5074231;28;20411;-57
2022/06/12 07:47:58;;;;;;;16.60;3.83;;;21.50;99.90;;;;;;5073931;28;20045;-58
2022/06/12 07:50:24;;;;;;;15.40;3.78;;;21.60;99.90;;;;;;5073905;28;20044;-56
2022/06/12 07:52:50;;;;;;;17.85;3.50;;;21.80;99.90;;;;;;5073537;28;20044;-56
2022/06/12 07:55:19;;;;;;;13.65;3.05;;;21.60;99.90;;;;;;5073875;28;20044;-57
2022/06/12 07:57:45;;;;;;;11.30;2.72;;;21.50;99.90;;;;;;5073856;28;20076;-57
2022/06/12 08:00:13;;;;;;;17.25;4.10;;;21.90;99.90;;;;;;5073890;28;20072;-57
2022/06/12 08:02:44;;;;;;;13.32;4.20;;;22.00;99.90;;;;;;5073782;28;20098;-57
2022/06/12 08:05:10;;;;;;;19.13;3.67;;;22.60;99.90;;;;;;5073938;28;20131;-58
2022/06/12 08:07:36;;;;;;;12.30;2.97;;;22.70;99.90;;;;;;5073749;28;20083;-56
2022/06/12 08:10:03;;;;;;;11.00;3.42;;;22.20;99.90;;;;;;5073844;28;20459;-56
2022/06/12 08:12:32;;;;;;;19.65;4.25;;;22.40;99.90;;;;;;5073689;28;20498;-56
2022/06/12 08:14:58;;;;;;;16.50;3.47;;;22.60;99.90;;;;;;5073488;28;20119;-56
2022/06/12 08:17:23;;;;;;;15.85;3.80;;;22.70;99.90;;;;;;5073495;28;20132;-56
2022/06/12 08:22:34;;;;;;;17.00;4.07;;;23.30;99.90;;;;;;5073354;28;20546;-56
2022/06/12 08:25:00;;;;;;;19.77;4.05;;;23.40;99.90;;;;;;5073360;28;20119;-56
2022/06/12 08:27:26;;;;;;;13.93;3.67;;;23.30;99.90;;;;;;5073284;28;20037;-56
2022/06/12 08:29:51;;;;;;;17.83;4.22;;;23.10;99.90;;;;;;5073254;28;20490;-56
2022/06/12 08:32:21;;;;;;;12.88;4.03;;;22.90;99.90;;;;;;5072994;28;20052;-56
2022/06/12 08:34:53;;;;;;;15.57;3.40;;;23.20;99.90;;;;;;5073404;28;20067;-56
2022/06/12 08:37:24;;;;;;;12.95;3.67;;;22.80;99.90;;;;;;5072762;28;20037;-56
2022/06/12 08:39:49;;;;;;;12.07;2.83;;;22.40;99.90;;;;;;5073134;28;20047;-56
2022/06/12 08:42:31;;;;;;;11.52;2.85;;;22.20;99.90;;;;;;5072938;28;20123;-55
2022/06/12 08:45:12;;;;;;;9.02;3.10;;;22.30;99.90;;;;;;5073012;28;20056;-56
2022/06/12 08:48:04;;;;;;;11.95;3.00;;;23.50;99.90;;;;;;5072589;28;20483;-55
2022/06/12 08:50:52;;;;;;;15.73;3.75;;;23.50;99.90;;;;;;5072938;28;20048;-56
2022/06/12 08:53:42;;;;;;;13.63;3.50;;;23.80;99.90;;;;;;5054817;28;20042;-57
2022/06/12 08:56:12;;;;;;;16.15;3.83;;;24.80;99.90;;;;;;5072580;28;20040;-57
2022/06/12 08:58:51;;;;;;;10.32;2.67;;;25.40;99.90;;;;;;5072703;28;20045;-58
2022/06/12 09:01:17;;;;;;;;;;;26.20;99.90;;;;;;5054671;28;20036;-57
2022/06/12 09:03:49;;;;;;;14.82;3.80;;;26.70;99.90;;;;;;5072538;28;20379;-57
2022/06/12 09:06:29;;;;;;;13.32;3.25;;;26.50;99.90;;;;;;5072183;28;20395;-57
2022/06/12 09:09:25;;;;;;;14.63;4.22;;;26.50;99.90;;;;;;5072951;28;20432;-57
2022/06/12 09:12:05;;;;;;;14.52;3.72;;;27.30;99.90;;;;;;5072433;28;20088;-57
2022/06/12 09:15:10;;;;;;;13.70;3.72;;;27.90;99.90;;;;;;5072446;28;20048;-57
2022/06/12 09:17:54;;;;;;;17.95;3.80;;;27.00;99.90;;;;;;5072366;28;20554;-57
2022/06/12 09:20:36;;;;;;;14.48;3.75;;;26.20;99.90;;;;;;5072165;28;20051;-57
2022/06/12 09:23:08;;;;;;;12.65;3.00;;;25.40;99.90;;;;;;5072255;28;20076;-58
2022/06/12 09:25:42;;;;;;;13.88;3.33;;;25.20;99.90;;;;;;5072366;28;20052;-56
2022/06/12 09:28:21;;;;;;;11.85;3.58;;;25.30;99.90;;;;;;5072074;28;20056;-56
2022/06/12 09:30:55;;;;;;;11.55;2.95;;;24.70;99.90;;;;;;5072306;28;20056;-57
2022/06/12 09:33:42;;;;;;;12.82;3.40;;;23.90;99.90;;;;;;5071996;28;20127;-57
2022/06/12 09:36:14;;;;;;;9.00;3.03;;;24.40;99.90;;;;;;5071951;28;20083;-57
2022/06/12 09:39:17;;;;;;;11.68;2.92;;;24.50;99.90;;;;;;5072188;28;20462;-55
2022/06/12 09:41:55;;;;;;;7.65;2.38;;;24.80;99.90;;;;;;5071844;28;20048;-56
2022/06/12 09:44:39;;;;;;;9.27;2.83;;;24.90;99.90;;;;;;5071929;28;20124;-57
2022/06/12 09:47:10;;;;;;;10.13;2.85;;;25.20;99.90;;;;;;5071838;28;20048;-56
2022/06/12 09:49:54;;;;;;;7.95;2.50;;;25.70;99.90;;;;;;5072057;28;20045;-58
2022/06/12 09:52:43;;;;;;;10.85;2.60;;;25.20;99.90;;;;;;5058119;28;20060;-57
2022/06/12 09:55:12;;;;;;;8.60;2.90;;;24.00;99.90;;;;;;5053670;28;20048;-58
2022/06/12 09:57:49;;;;;;;;;;;23.30;99.90;;;;;;5072101;28;20116;-58
2022/06/12 10:00:40;;;;;;;6.70;2.30;;;23.20;99.90;;;;;;5071694;28;19916;-57
2022/06/12 10:03:23;;;;;;;15.02;1.98;;;23.70;99.90;;;;;;5029516;28;20111;-57
2022/06/12 10:06:29;;;;;;;4.88;2.00;;;24.20;99.90;;;;;;5029139;28;20099;-57
2022/06/12 10:09:06;;;;;;;7.18;2.30;;;24.40;99.90;;;;;;4970524;28;20047;-57
2022/06/12 10:11:36;;;;;;;5.72;2.33;;;24.80;99.90;;;;;;4970738;28;20489;-57
2022/06/12 10:14:11;;;;;;;3.75;1.60;;;24.90;99.90;;;;;;4970952;28;20051;-57
2022/06/12 10:16:53;;;;;;;6.57;1.73;;;24.10;99.90;;;;;;4976502;28;20083;-57
2022/06/12 10:19:27;;;;;;;5.40;1.40;;;24.10;99.90;;;;;;4970267;28;20054;-57
2022/06/12 10:21:58;;;;;;;6.43;2.03;;;24.30;99.90;;;;;;4970572;28;20054;-56
2022/06/12 10:24:24;;;;;;;8.80;1.80;;;24.20;99.90;;;;;;4970444;28;20054;-57
2022/06/12 10:27:03;;;;;;;5.93;1.85;;;24.40;99.90;;;;;;4970429;28;20093;-58
2022/06/12 10:29:40;;;;;;;;;;;24.70;99.90;;;;;;4971011;28;20065;-57
2022/06/12 10:32:13;;;;;;;5.72;1.92;;;24.30;99.90;;;;;;4970593;28;19921;-57
2022/06/12 10:34:39;;;;;;;5.78;1.83;;;24.30;99.90;;;;;;4970373;28;20050;-58
2022/06/12 10:37:31;;;;;;;10.48;1.73;;;24.50;99.90;;;;;;4970352;28;20134;-57
2022/06/12 10:40:18;;;;;;;7.05;2.25;;;24.70;99.90;;;;;;4985622;28;20473;-58
2022/06/12 10:42:57;;;;;;;6.82;1.90;;;24.60;99.90;;;;;;5009708;28;20054;-56
2022/06/12 10:45:30;;;;;;;5.07;1.73;;;24.00;99.90;;;;;;5062749;28;20059;-57
2022/06/12 10:48:02;;;;;;;4.95;1.85;;;23.80;99.90;;;;;;5052940;28;20048;-56
2022/06/12 10:50:30;;;;;;;6.18;2.03;;;24.10;99.90;;;;;;5070926;28;20562;-56
2022/06/12 10:53:08;;;;;;;10.88;2.03;;;24.50;99.90;;;;;;5071092;28;20510;-57
2022/06/12 10:55:51;;;;;;;4.00;1.60;;;24.80;99.90;;;;;;5053203;28;20430;-57
2022/06/12 10:58:47;;;;;;;6.78;1.85;;;24.60;99.90;;;;;;5071279;28;20072;-58
2022/06/12 11:01:41;;;;;;;7.13;2.08;;;24.10;99.90;;;;;;5071025;28;20041;-57
2022/06/12 11:04:27;;;;;;;5.28;2.20;;;23.70;99.90;;;;;;5070827;28;20091;-56
2022/06/12 11:07:18;;;;;;;6.90;2.40;;;23.40;99.90;;;;;;5071399;28;20048;-57
2022/06/12 11:10:05;;;;;;;6.45;1.90;;;23.20;99.90;;;;;;5060018;28;20125;-57
2022/06/12 11:12:39;;;;;;;7.05;2.00;;;23.10;99.90;;;;;;5070539;28;20056;-57
2022/06/12 11:15:32;;;;;;;5.80;1.90;;;23.30;99.90;;;;;;5071094;28;20176;-57
2022/06/12 11:18:18;;;;;;;9.50;2.13;;;23.00;99.90;;;;;;5070439;28;20045;-57
2022/06/12 11:21:03;;;;;;;5.88;1.63;;;23.10;99.90;;;;;;5070697;28;20041;-57
2022/06/12 11:24:08;;;;;;;12.52;2.38;;;23.50;99.90;;;;;;5053130;28;20394;-57
2022/06/12 11:26:58;;;;;;;6.47;2.10;;;23.70;99.90;;;;;;5070031;28;20163;-57
2022/06/12 11:29:47;;;;;;;6.53;2.10;;;23.20;99.90;;;;;;5074151;28;20115;-57
2022/06/12 11:32:46;;;;;;;9.43;2.20;;;23.70;99.90;;;;;;5012519;28;20046;-56
2022/06/12 11:35:34;;;;;;;7.28;2.10;;;24.10;99.90;;;;;;5012350;28;20042;-57
2022/06/12 11:38:18;;;;;;;7.25;2.17;;;23.70;99.90;;;;;;5012361;28;20578;-57
2022/06/12 11:40:59;;;;;;;5.80;2.17;;;24.10;99.90;;;;;;5012339;28;20057;-57
2022/06/12 11:44:01;;;;;;;6.57;1.92;;;24.50;99.90;;;;;;5012140;28;20057;-56
2022/06/12 11:46:43;;;;;;;8.35;2.22;;;24.50;99.20;;;;;;4957082;28;20054;-58
2022/06/12 11:49:40;;;;;;;7.50;1.95;;;24.10;99.60;;;;;;4973297;28;20066;-57
2022/06/12 11:52:33;;;;;;;6.72;1.80;;;24.20;99.90;;;;;;4972933;28;20125;-57
2022/06/12 11:55:29;;;;;;;6.15;1.70;;;24.30;99.90;;;;;;4973102;28;20058;-57
2022/06/12 11:58:40;;;;;;;3.78;1.23;;;24.20;97.20;;;;;;4972956;28;20053;-57
2022/06/12 12:01:37;;;;;;;5.97;1.75;;;24.50;97.80;;;;;;4972946;28;20047;-56
2022/06/12 12:04:19;;;;;;;7.85;1.73;;;24.80;99.40;;;;;;4972720;28;20438;-57
2022/06/12 12:07:06;;;;;;;5.32;1.65;;;25.00;98.60;;;;;;4972969;28;20474;-56
2022/06/12 12:09:31;;;;;;;6.32;1.77;;;24.90;98.70;;;;;;4972959;28;20054;-58
2022/06/12 12:12:04;;;;;;;8.60;1.95;;;25.20;99.90;;;;;;4972397;28;20106;-57
2022/06/12 12:14:34;;;;;;;6.53;2.20;;;24.80;99.70;;;;;;4972308;28;20047;-57
2022/06/12 12:17:19;;;;;;;7.15;1.83;;;24.20;99.30;;;;;;4972473;28;20055;-57
2022/06/12 12:19:51;;;;;;;7.80;2.22;;;23.50;99.50;;;;;;4972053;28;20047;-57
2022/06/12 12:22:23;;;;;;;6.07;1.75;;;23.60;99.90;;;;;;4998378;28;20063;-57
2022/06/12 12:24:53;;;;;;;4.75;1.77;;;23.50;99.90;;;;;;5073371;28;20076;-56
2022/06/12 12:27:31;;;;;;;5.35;1.55;;;24.00;99.90;;;;;;5073248;28;20072;-57
2022/06/12 12:29:59;;;;;;;6.32;1.75;;;23.70;99.80;;;;;;5073332;28;20080;-56
2022/06/12 12:32:25;;;;;;;;;;;23.90;99.90;;;;;;5073478;28;20094;-57
2022/06/12 12:34:55;;;;;;;7.65;2.30;;;24.30;99.30;;;;;;5073308;28;19924;-57
2022/06/12 12:43:12;;;;;;;7.80;2.38;;;23.70;99.90;;;;;;5072875;28;20548;-57
2022/06/12 12:45:37;;;;;;;6.20;1.80;;;23.30;99.90;;;;;;5072899;28;20044;-56
2022/06/12 12:48:13;;;;;;;7.97;1.70;;;23.40;99.40;;;;;;5072908;28;20052;-57
2022/06/12 12:50:46;;;;;;;6.28;2.05;;;23.60;99.30;;;;;;5072598;28;20040;-57
2022/06/12 12:53:23;;;;;;;6.70;1.63;;;23.60;99.50;;;;;;5072613;28;20045;-57
2022/06/12 12:55:57;;;;;;;6.15;1.50;;;23.30;98.70;;;;;;5072932;28;20128;-57
2022/06/12 12:58:24;;;;;;;6.90;2.47;;;23.30;99.80;;;;;;5072659;28;20421;-56
2022/06/12 13:01:05;;;;;;;6.00;1.60;;;23.50;99.10;;;;;;5072264;28;20048;-56
2022/06/12 13:03:38;;;;;;;10.95;1.80;;;23.60;98.40;;;;;;5072792;28;20136;-56
2022/06/12 13:06:20;;;;;;;6.78;1.52;;;23.70;98.40;;;;;;5059158;28;20482;-58
2022/06/12 13:09:18;;;;;;;9.15;2.28;;;23.90;99.90;;;;;;5054244;28;20048;-57
2022/06/12 13:11:52;;;;;;;9.47;2.00;;;23.60;99.90;;;;;;5010456;28;20046;-59
2022/06/12 13:14:45;;;;;;;7.22;2.20;;;23.80;99.90;;;;;;5010804;28;20049;-60
2022/06/12 13:17:20;;;;;;;4.38;1.65;;;23.20;99.90;;;;;;5010524;28;20049;-57
2022/06/12 13:20:00;;;;;;;9.32;2.22;;;23.40;99.90;;;;;;5010242;28;20415;-57
2022/06/12 13:22:37;;;;;;;7.55;2.28;;;23.70;99.90;;;;;;5010585;28;20125;-57
2022/06/12 13:25:18;;;;;;;6.32;1.90;;;23.90;99.90;;;;;;5010217;28;20157;-57
2022/06/12 13:27:58;;;;;;;8.02;1.92;;;23.90;99.90;;;;;;5010501;28;20092;-57
2022/06/12 13:30:32;;;;;;;6.88;1.85;;;24.00;99.90;;;;;;5010520;28;20042;-57
2022/06/12 13:33:23;;;;;;;7.40;1.95;;;24.00;99.90;;;;;;5010229;28;20046;-57
2022/06/12 13:35:53;;;;;;;11.25;2.88;;;23.90;99.80;;;;;;5010365;28;20045;-57